sensor_id;sensor_type;location;lat;lon;timestamp;temperature;humidity
12761;DHT22;6444;49.742;6.114;2022-11-20T00:02:06;9.90;99.90
12761;DHT22;6444;49.742;6.114;2022-11-20T00:04:33;9.90;99.90
12761;DHT22;6444;49.742;6.114;2022-11-20T00:06:59;9.40;99.90
12761;DHT22;6444;49.742;6.114;2022-11-20T00:09:26;9.20;99.90
12761;DHT22;6444;49.742;6.114;2022-11-20T00:11:52;9.60;99.90
12761;DHT22;6444;49.742;6.114;2022-11-20T00:14:20;9.70;99.90
12761;DHT22;6444;49.742;6.114;2022-11-20T00:16:46;9.70;99.90
12761;DHT22;6444;49.742;6.114;2022-11-20T00:19:13;9.90;99.90
12761;DHT22;6444;49.742;6.114;2022-11-20T00:21:40;10.00;99.90
12761;DHT22;6444;49.742;6.114;2022-11-20T00:24:10;9.90;99.90
12761;DHT22;6444;49.742;6.114;2022-11-20T00:26:37;10.10;99.90
12761;DHT22;6444;49.742;6.114;2022-11-20T00:29:03;10.70;99.90
12761;DHT22;6444;49.742;6.114;2022-11-20T00:31:30;10.60;99.90
12761;DHT22;6444;49.742;6.114;2022-11-20T00:33:57;10.50;99.90
12761;DHT22;6444;49.742;6.114;2022-11-20T00:36:24;10.40;99.90
12761;DHT22;6444;49.742;6.114;2022-11-20T00:38:53;10.50;99.90
12761;DHT22;6444;49.742;6.114;2022-11-20T00:41:19;10.40;99.90
12761;DHT22;6444;49.742;6.114;2022-11-20T00:43:46;10.00;99.90
12761;DHT22;6444;49.742;6.114;2022-11-20T00:46:16;9.80;99.90
12761;DHT22;6444;49.742;6.114;2022-11-20T00:48:42;9.90;99.90
12761;DHT22;6444;49.742;6.114;2022-11-20T00:51:09;9.80;99.90
12761;DHT22;6444;49.742;6.114;2022-11-20T00:53:35;9.70;99.90
12761;DHT22;6444;49.742;6.114;2022-11-20T00:56:06;9.50;99.90
12761;DHT22;6444;49.742;6.114;2022-11-20T00:58:36;9.10;99.90
12761;DHT22;6444;49.742;6.114;2022-11-20T01:01:09;9.10;99.90
12761;DHT22;6444;49.742;6.114;2022-11-20T01:03:35;9.40;99.90
12761;DHT22;6444;49.742;6.114;2022-11-20T01:06:05;9.40;99.90
12761;DHT22;6444;49.742;6.114;2022-11-20T01:08:34;9.40;99.90
12761;DHT22;6444;49.742;6.114;2022-11-20T01:11:04;9.80;99.90
12761;DHT22;6444;49.742;6.114;2022-11-20T01:13:27;9.90;99.90
12761;DHT22;6444;49.742;6.114;2022-11-20T01:16:09;9.60;99.90
12761;DHT22;6444;49.742;6.114;2022-11-20T01:18:35;9.20;99.90
12761;DHT22;6444;49.742;6.114;2022-11-20T01:21:05;8.90;99.90
12761;DHT22;6444;49.742;6.114;2022-11-20T01:23:33;9.00;99.90
12761;DHT22;6444;49.742;6.114;2022-11-20T01:25:59;9.30;99.90
12761;DHT22;6444;49.742;6.114;2022-11-20T01:28:24;9.40;99.90
12761;DHT22;6444;49.742;6.114;2022-11-20T01:30:50;9.60;99.90
12761;DHT22;6444;49.742;6.114;2022-11-20T01:33:17;9.60;99.90
12761;DHT22;6444;49.742;6.114;2022-11-20T01:35:44;9.40;99.90
12761;DHT22;6444;49.742;6.114;2022-11-20T01:38:11;9.30;99.90
12761;DHT22;6444;49.742;6.114;2022-11-20T01:40:37;9.70;99.90
12761;DHT22;6444;49.742;6.114;2022-11-20T01:43:17;10.00;99.90
12761;DHT22;6444;49.742;6.114;2022-11-20T01:46:16;10.30;99.90
12761;DHT22;6444;49.742;6.114;2022-11-20T01:48:43;9.90;99.90
12761;DHT22;6444;49.742;6.114;2022-11-20T01:51:15;9.90;99.90
12761;DHT22;6444;49.742;6.114;2022-11-20T01:53:39;10.00;99.90
12761;DHT22;6444;49.742;6.114;2022-11-20T01:56:05;10.10;99.90
12761;DHT22;6444;49.742;6.114;2022-11-20T01:58:33;9.80;99.90
12761;DHT22;6444;49.742;6.114;2022-11-20T02:00:58;9.10;99.90
12761;DHT22;6444;49.742;6.114;2022-11-20T02:03:25;8.60;99.90
12761;DHT22;6444;49.742;6.114;2022-11-20T02:06:10;8.80;99.90
12761;DHT22;6444;49.742;6.114;2022-11-20T02:08:34;8.80;99.90
12761;DHT22;6444;49.742;6.114;2022-11-20T02:11:01;8.80;99.90
12761;DHT22;6444;49.742;6.114;2022-11-20T02:13:27;8.70;99.90
12761;DHT22;6444;49.742;6.114;2022-11-20T02:16:12;8.60;99.90
12761;DHT22;6444;49.742;6.114;2022-11-20T02:18:35;9.50;99.90
12761;DHT22;6444;49.742;6.114;2022-11-20T02:21:07;9.50;99.90
12761;DHT22;6444;49.742;6.114;2022-11-20T02:24:06;10.20;99.90
12761;DHT22;6444;49.742;6.114;2022-11-20T02:26:41;10.60;99.90
12761;DHT22;6444;49.742;6.114;2022-11-20T02:29:04;10.60;99.90
12761;DHT22;6444;49.742;6.114;2022-11-20T02:31:37;10.40;99.90
12761;DHT22;6444;49.742;6.114;2022-11-20T02:34:03;10.30;99.90
12761;DHT22;6444;49.742;6.114;2022-11-20T02:36:30;10.00;99.90
12761;DHT22;6444;49.742;6.114;2022-11-20T02:38:57;9.90;99.90
12761;DHT22;6444;49.742;6.114;2022-11-20T02:41:30;10.50;99.90
12761;DHT22;6444;49.742;6.114;2022-11-20T02:43:50;10.10;99.90
12761;DHT22;6444;49.742;6.114;2022-11-20T02:46:17;9.40;99.90
12761;DHT22;6444;49.742;6.114;2022-11-20T02:48:43;9.70;99.90
12761;DHT22;6444;49.742;6.114;2022-11-20T02:51:10;9.80;99.90
12761;DHT22;6444;49.742;6.114;2022-11-20T02:53:36;9.90;99.90
12761;DHT22;6444;49.742;6.114;2022-11-20T02:56:03;9.70;99.90
12761;DHT22;6444;49.742;6.114;2022-11-20T02:58:30;9.30;99.90
12761;DHT22;6444;49.742;6.114;2022-11-20T03:00:56;8.80;99.90
12761;DHT22;6444;49.742;6.114;2022-11-20T03:03:23;9.10;99.90
12761;DHT22;6444;49.742;6.114;2022-11-20T03:05:50;9.20;99.90
12761;DHT22;6444;49.742;6.114;2022-11-20T03:08:17;9.20;99.90
12761;DHT22;6444;49.742;6.114;2022-11-20T03:15:57;9.20;99.90
12761;DHT22;6444;49.742;6.114;2022-11-20T03:18:23;9.20;99.90
12761;DHT22;6444;49.742;6.114;2022-11-20T03:20:50;9.10;99.90
12761;DHT22;6444;49.742;6.114;2022-11-20T03:23:16;9.20;99.90
12761;DHT22;6444;49.742;6.114;2022-11-20T03:25:43;9.50;99.90
12761;DHT22;6444;49.742;6.114;2022-11-20T03:28:10;9.80;99.90
12761;DHT22;6444;49.742;6.114;2022-11-20T03:30:36;9.50;99.90
12761;DHT22;6444;49.742;6.114;2022-11-20T03:33:03;9.60;99.90
12761;DHT22;6444;49.742;6.114;2022-11-20T03:35:29;9.10;99.90
12761;DHT22;6444;49.742;6.114;2022-11-20T03:37:57;9.20;99.90
12761;DHT22;6444;49.742;6.114;2022-11-20T03:40:23;9.40;99.90
12761;DHT22;6444;49.742;6.114;2022-11-20T03:42:49;9.20;99.90
12761;DHT22;6444;49.742;6.114;2022-11-20T03:45:17;9.70;99.90
12761;DHT22;6444;49.742;6.114;2022-11-20T03:47:43;10.20;99.90
12761;DHT22;6444;49.742;6.114;2022-11-20T03:50:11;10.20;99.90
12761;DHT22;6444;49.742;6.114;2022-11-20T03:52:37;10.30;99.90
12761;DHT22;6444;49.742;6.114;2022-11-20T03:55:03;9.60;99.90
12761;DHT22;6444;49.742;6.114;2022-11-20T03:57:30;9.60;99.90
12761;DHT22;6444;49.742;6.114;2022-11-20T03:59:57;9.40;99.90
12761;DHT22;6444;49.742;6.114;2022-11-20T04:02:24;9.30;99.90
12761;DHT22;6444;49.742;6.114;2022-11-20T04:04:51;9.30;99.90
12761;DHT22;6444;49.742;6.114;2022-11-20T04:07:17;9.50;99.90
12761;DHT22;6444;49.742;6.114;2022-11-20T04:09:45;10.20;99.90
12761;DHT22;6444;49.742;6.114;2022-11-20T04:12:11;10.20;99.90
12761;DHT22;6444;49.742;6.114;2022-11-20T04:14:38;10.20;99.90
12761;DHT22;6444;49.742;6.114;2022-11-20T04:17:04;10.30;99.90
12761;DHT22;6444;49.742;6.114;2022-11-20T04:19:31;10.00;99.90
12761;DHT22;6444;49.742;6.114;2022-11-20T04:21:58;10.60;99.90
12761;DHT22;6444;49.742;6.114;2022-11-20T04:24:25;10.60;99.90
12761;DHT22;6444;49.742;6.114;2022-11-20T04:26:52;10.40;99.90
12761;DHT22;6444;49.742;6.114;2022-11-20T04:29:18;10.50;99.90
12761;DHT22;6444;49.742;6.114;2022-11-20T04:31:45;10.50;99.90
12761;DHT22;6444;49.742;6.114;2022-11-20T04:34:12;10.50;99.90
12761;DHT22;6444;49.742;6.114;2022-11-20T04:36:39;9.40;99.90
12761;DHT22;6444;49.742;6.114;2022-11-20T04:39:06;9.40;99.90
12761;DHT22;6444;49.742;6.114;2022-11-20T04:41:33;9.80;99.90
12761;DHT22;6444;49.742;6.114;2022-11-20T04:44:00;10.30;99.90
12761;DHT22;6444;49.742;6.114;2022-11-20T04:46:26;10.20;99.90
12761;DHT22;6444;49.742;6.114;2022-11-20T04:48:53;10.50;99.90
12761;DHT22;6444;49.742;6.114;2022-11-20T04:51:19;10.80;99.90
12761;DHT22;6444;49.742;6.114;2022-11-20T04:53:46;10.50;99.90
12761;DHT22;6444;49.742;6.114;2022-11-20T04:56:13;10.30;99.90
12761;DHT22;6444;49.742;6.114;2022-11-20T04:58:40;10.30;99.90
12761;DHT22;6444;49.742;6.114;2022-11-20T05:01:09;10.30;99.90
12761;DHT22;6444;49.742;6.114;2022-11-20T05:03:33;10.10;99.90
12761;DHT22;6444;49.742;6.114;2022-11-20T05:06:00;9.70;99.90
12761;DHT22;6444;49.742;6.114;2022-11-20T05:08:27;9.70;99.90
12761;DHT22;6444;49.742;6.114;2022-11-20T05:10:58;9.90;99.90
12761;DHT22;6444;49.742;6.114;2022-11-20T05:13:21;9.80;99.90
12761;DHT22;6444;49.742;6.114;2022-11-20T05:15:47;9.40;99.90
12761;DHT22;6444;49.742;6.114;2022-11-20T05:18:14;9.50;99.90
12761;DHT22;6444;49.742;6.114;2022-11-20T05:20:41;9.60;99.90
12761;DHT22;6444;49.742;6.114;2022-11-20T05:23:08;9.60;99.90
12761;DHT22;6444;49.742;6.114;2022-11-20T05:25:35;9.70;99.90
12761;DHT22;6444;49.742;6.114;2022-11-20T05:28:01;10.40;99.90
12761;DHT22;6444;49.742;6.114;2022-11-20T05:30:28;10.50;99.90
12761;DHT22;6444;49.742;6.114;2022-11-20T05:32:55;9.90;99.90
12761;DHT22;6444;49.742;6.114;2022-11-20T05:35:22;9.90;99.90
12761;DHT22;6444;49.742;6.114;2022-11-20T05:37:48;9.90;99.90
12761;DHT22;6444;49.742;6.114;2022-11-20T05:40:15;9.90;99.90
12761;DHT22;6444;49.742;6.114;2022-11-20T05:42:42;9.40;99.90
12761;DHT22;6444;49.742;6.114;2022-11-20T05:45:09;9.60;99.90
12761;DHT22;6444;49.742;6.114;2022-11-20T05:47:36;9.60;99.90
12761;DHT22;6444;49.742;6.114;2022-11-20T05:50:02;9.30;99.90
12761;DHT22;6444;49.742;6.114;2022-11-20T05:52:30;9.20;99.90
12761;DHT22;6444;49.742;6.114;2022-11-20T05:54:56;9.10;99.90
12761;DHT22;6444;49.742;6.114;2022-11-20T05:57:23;9.10;99.90
12761;DHT22;6444;49.742;6.114;2022-11-20T05:59:50;9.60;99.90
12761;DHT22;6444;49.742;6.114;2022-11-20T06:02:16;9.60;99.90
12761;DHT22;6444;49.742;6.114;2022-11-20T06:04:43;9.50;99.90
12761;DHT22;6444;49.742;6.114;2022-11-20T06:07:09;9.60;99.90
12761;DHT22;6444;49.742;6.114;2022-11-20T06:09:36;9.60;99.90
12761;DHT22;6444;49.742;6.114;2022-11-20T06:12:03;9.60;99.90
12761;DHT22;6444;49.742;6.114;2022-11-20T06:14:29;9.40;99.90
12761;DHT22;6444;49.742;6.114;2022-11-20T06:16:56;9.30;99.90
12761;DHT22;6444;49.742;6.114;2022-11-20T06:19:23;9.50;99.90
12761;DHT22;6444;49.742;6.114;2022-11-20T06:21:49;9.60;99.90
12761;DHT22;6444;49.742;6.114;2022-11-20T06:24:16;9.90;99.90
12761;DHT22;6444;49.742;6.114;2022-11-20T06:26:43;10.50;99.90
12761;DHT22;6444;49.742;6.114;2022-11-20T06:29:10;10.50;99.90
12761;DHT22;6444;49.742;6.114;2022-11-20T06:31:36;10.60;99.90
12761;DHT22;6444;49.742;6.114;2022-11-20T06:34:04;10.40;99.90
12761;DHT22;6444;49.742;6.114;2022-11-20T06:36:30;10.50;99.90
12761;DHT22;6444;49.742;6.114;2022-11-20T06:38:56;10.40;99.90
12761;DHT22;6444;49.742;6.114;2022-11-20T06:41:24;10.20;99.90
12761;DHT22;6444;49.742;6.114;2022-11-20T06:43:50;10.20;99.90
12761;DHT22;6444;49.742;6.114;2022-11-20T06:46:18;10.00;99.90
12761;DHT22;6444;49.742;6.114;2022-11-20T06:48:44;9.90;99.90
12761;DHT22;6444;49.742;6.114;2022-11-20T06:51:10;9.60;99.90
12761;DHT22;6444;49.742;6.114;2022-11-20T06:53:37;9.40;99.90
12761;DHT22;6444;49.742;6.114;2022-11-20T06:56:04;9.30;99.90
12761;DHT22;6444;49.742;6.114;2022-11-20T06:58:31;9.80;99.90
12761;DHT22;6444;49.742;6.114;2022-11-20T07:01:03;10.00;99.90
12761;DHT22;6444;49.742;6.114;2022-11-20T07:03:29;9.90;99.90
12761;DHT22;6444;49.742;6.114;2022-11-20T07:05:56;9.90;99.90
12761;DHT22;6444;49.742;6.114;2022-11-20T07:08:22;10.00;99.90
12761;DHT22;6444;49.742;6.114;2022-11-20T07:10:49;9.90;99.90
12761;DHT22;6444;49.742;6.114;2022-11-20T07:13:15;10.20;99.90
12761;DHT22;6444;49.742;6.114;2022-11-20T07:15:42;9.90;99.90
12761;DHT22;6444;49.742;6.114;2022-11-20T07:18:09;9.50;99.90
12761;DHT22;6444;49.742;6.114;2022-11-20T07:20:36;9.40;99.90
12761;DHT22;6444;49.742;6.114;2022-11-20T07:23:03;9.40;99.90
12761;DHT22;6444;49.742;6.114;2022-11-20T07:25:30;9.40;99.90
12761;DHT22;6444;49.742;6.114;2022-11-20T07:27:57;9.30;99.90
12761;DHT22;6444;49.742;6.114;2022-11-20T07:30:23;9.20;99.90
12761;DHT22;6444;49.742;6.114;2022-11-20T07:32:51;9.50;99.90
12761;DHT22;6444;49.742;6.114;2022-11-20T07:35:17;9.40;99.90
12761;DHT22;6444;49.742;6.114;2022-11-20T07:37:44;9.30;99.90
12761;DHT22;6444;49.742;6.114;2022-11-20T07:40:11;9.80;99.90
12761;DHT22;6444;49.742;6.114;2022-11-20T07:42:37;10.10;99.90
12761;DHT22;6444;49.742;6.114;2022-11-20T07:45:04;9.90;99.90
12761;DHT22;6444;49.742;6.114;2022-11-20T07:47:37;10.00;99.90
12761;DHT22;6444;49.742;6.114;2022-11-20T07:50:04;10.90;99.90
12761;DHT22;6444;49.742;6.114;2022-11-20T07:52:31;10.80;99.90
12761;DHT22;6444;49.742;6.114;2022-11-20T07:54:57;11.00;99.90
12761;DHT22;6444;49.742;6.114;2022-11-20T07:57:24;10.70;99.90
12761;DHT22;6444;49.742;6.114;2022-11-20T07:59:51;10.40;99.90
12761;DHT22;6444;49.742;6.114;2022-11-20T08:02:17;10.10;99.90
12761;DHT22;6444;49.742;6.114;2022-11-20T08:04:45;10.10;99.90
12761;DHT22;6444;49.742;6.114;2022-11-20T08:07:11;10.00;99.90
12761;DHT22;6444;49.742;6.114;2022-11-20T08:09:38;9.60;99.90
12761;DHT22;6444;49.742;6.114;2022-11-20T08:12:05;9.50;99.90
12761;DHT22;6444;49.742;6.114;2022-11-20T08:14:49;9.80;99.90
12761;DHT22;6444;49.742;6.114;2022-11-20T08:17:16;9.90;99.90
12761;DHT22;6444;49.742;6.114;2022-11-20T08:19:42;9.60;99.90
12761;DHT22;6444;49.742;6.114;2022-11-20T08:22:10;9.40;99.90
12761;DHT22;6444;49.742;6.114;2022-11-20T08:24:36;9.40;99.90
12761;DHT22;6444;49.742;6.114;2022-11-20T08:27:03;9.60;99.90
12761;DHT22;6444;49.742;6.114;2022-11-20T08:29:30;10.20;99.90
12761;DHT22;6444;49.742;6.114;2022-11-20T08:31:57;10.30;99.90
12761;DHT22;6444;49.742;6.114;2022-11-20T08:34:24;10.30;99.90
12761;DHT22;6444;49.742;6.114;2022-11-20T08:36:51;10.10;99.90
12761;DHT22;6444;49.742;6.114;2022-11-20T08:39:17;9.60;99.90
12761;DHT22;6444;49.742;6.114;2022-11-20T08:41:44;9.50;99.90
12761;DHT22;6444;49.742;6.114;2022-11-20T08:44:10;9.20;99.90
12761;DHT22;6444;49.742;6.114;2022-11-20T08:46:38;9.40;99.90
12761;DHT22;6444;49.742;6.114;2022-11-20T08:49:08;9.40;99.90
12761;DHT22;6444;49.742;6.114;2022-11-20T08:51:33;9.50;99.90
12761;DHT22;6444;49.742;6.114;2022-11-20T08:54:00;9.30;99.90
12761;DHT22;6444;49.742;6.114;2022-11-20T08:56:27;9.30;99.90
12761;DHT22;6444;49.742;6.114;2022-11-20T08:58:53;9.10;99.90
12761;DHT22;6444;49.742;6.114;2022-11-20T09:01:20;9.40;99.90
12761;DHT22;6444;49.742;6.114;2022-11-20T09:03:47;9.90;99.90
12761;DHT22;6444;49.742;6.114;2022-11-20T09:06:14;9.90;99.90
12761;DHT22;6444;49.742;6.114;2022-11-20T09:08:40;10.00;99.90
12761;DHT22;6444;49.742;6.114;2022-11-20T09:11:08;9.80;99.90
12761;DHT22;6444;49.742;6.114;2022-11-20T09:13:35;10.10;99.90
12761;DHT22;6444;49.742;6.114;2022-11-20T09:16:03;10.10;99.90
12761;DHT22;6444;49.742;6.114;2022-11-20T09:18:28;9.40;99.90
12761;DHT22;6444;49.742;6.114;2022-11-20T09:20:58;9.80;99.90
12761;DHT22;6444;49.742;6.114;2022-11-20T09:23:30;9.90;99.90
12761;DHT22;6444;49.742;6.114;2022-11-20T09:25:54;10.00;99.90
12761;DHT22;6444;49.742;6.114;2022-11-20T09:28:21;10.60;99.90
12761;DHT22;6444;49.742;6.114;2022-11-20T09:30:47;10.80;99.90
12761;DHT22;6444;49.742;6.114;2022-11-20T09:33:14;10.60;99.90
12761;DHT22;6444;49.742;6.114;2022-11-20T09:35:41;10.80;99.90
12761;DHT22;6444;49.742;6.114;2022-11-20T09:38:07;10.70;99.90
12761;DHT22;6444;49.742;6.114;2022-11-20T09:40:34;11.30;99.90
12761;DHT22;6444;49.742;6.114;2022-11-20T09:43:03;11.60;99.90
12761;DHT22;6444;49.742;6.114;2022-11-20T09:51:28;12.20;99.90
12761;DHT22;6444;49.742;6.114;2022-11-20T09:54:06;12.10;99.90
12761;DHT22;6444;49.742;6.114;2022-11-20T09:56:28;11.30;99.90
12761;DHT22;6444;49.742;6.114;2022-11-20T09:58:55;11.20;99.90
12761;DHT22;6444;49.742;6.114;2022-11-20T10:01:22;11.80;99.90
12761;DHT22;6444;49.742;6.114;2022-11-20T10:04:01;11.90;99.90
12761;DHT22;6444;49.742;6.114;2022-11-20T10:06:33;11.90;99.90
12761;DHT22;6444;49.742;6.114;2022-11-20T10:11:38;10.20;99.90
12761;DHT22;6444;49.742;6.114;2022-11-20T10:21:58;10.40;99.90
12761;DHT22;6444;49.742;6.114;2022-11-20T10:27:06;11.40;99.90
12761;DHT22;6444;49.742;6.114;2022-11-20T10:29:36;11.60;99.90
12761;DHT22;6444;49.742;6.114;2022-11-20T10:32:03;11.40;99.90
12761;DHT22;6444;49.742;6.114;2022-11-20T10:34:50;10.50;99.90
12761;DHT22;6444;49.742;6.114;2022-11-20T10:36:55;10.40;99.90
12761;DHT22;6444;49.742;6.114;2022-11-20T10:42:14;10.40;99.90
12761;DHT22;6444;49.742;6.114;2022-11-20T10:44:39;10.40;99.90
12761;DHT22;6444;49.742;6.114;2022-11-20T10:47:24;10.60;99.90
12761;DHT22;6444;49.742;6.114;2022-11-20T10:49:52;11.10;99.90
12761;DHT22;6444;49.742;6.114;2022-11-20T11:00:34;10.80;99.90
12761;DHT22;6444;49.742;6.114;2022-11-20T11:03:01;11.00;99.90
12761;DHT22;6444;49.742;6.114;2022-11-20T11:08:00;11.10;99.90
12761;DHT22;6444;49.742;6.114;2022-11-20T11:13:05;10.60;99.90
12761;DHT22;6444;49.742;6.114;2022-11-20T11:15:38;11.20;99.90
12761;DHT22;6444;49.742;6.114;2022-11-20T11:18:04;11.10;99.90
12761;DHT22;6444;49.742;6.114;2022-11-20T11:20:31;11.00;99.90
12761;DHT22;6444;49.742;6.114;2022-11-20T11:22:57;10.90;99.90
12761;DHT22;6444;49.742;6.114;2022-11-20T11:27:52;10.30;99.90
12761;DHT22;6444;49.742;6.114;2022-11-20T11:30:19;10.30;99.90
12761;DHT22;6444;49.742;6.114;2022-11-20T11:32:46;10.50;99.90
12761;DHT22;6444;49.742;6.114;2022-11-20T11:35:27;10.70;99.90
12761;DHT22;6444;49.742;6.114;2022-11-20T11:38:05;10.70;99.90
12761;DHT22;6444;49.742;6.114;2022-11-20T11:40:28;10.50;99.90
12761;DHT22;6444;49.742;6.114;2022-11-20T11:42:56;10.40;99.90
12761;DHT22;6444;49.742;6.114;2022-11-20T11:45:22;10.40;99.90
12761;DHT22;6444;49.742;6.114;2022-11-20T11:47:48;11.20;99.90
12761;DHT22;6444;49.742;6.114;2022-11-20T11:50:22;11.30;99.90
12761;DHT22;6444;49.742;6.114;2022-11-20T11:58:32;10.40;99.90
12761;DHT22;6444;49.742;6.114;2022-11-20T12:00:58;10.00;99.90
12761;DHT22;6444;49.742;6.114;2022-11-20T12:03:39;10.20;99.90
12761;DHT22;6444;49.742;6.114;2022-11-20T12:06:14;10.70;99.90
12761;DHT22;6444;49.742;6.114;2022-11-20T12:14:19;10.70;99.90
12761;DHT22;6444;49.742;6.114;2022-11-20T12:16:18;11.00;99.90
12761;DHT22;6444;49.742;6.114;2022-11-20T12:18:44;10.70;99.90
12761;DHT22;6444;49.742;6.114;2022-11-20T12:24:10;10.30;99.90
12761;DHT22;6444;49.742;6.114;2022-11-20T12:32:03;10.10;99.90
12761;DHT22;6444;49.742;6.114;2022-11-20T12:43:16;10.20;99.90
12761;DHT22;6444;49.742;6.114;2022-11-20T12:45:59;10.00;99.90
12761;DHT22;6444;49.742;6.114;2022-11-20T12:54:11;9.80;99.90
12761;DHT22;6444;49.742;6.114;2022-11-20T12:56:43;9.80;99.90
12761;DHT22;6444;49.742;6.114;2022-11-20T13:07:36;9.40;99.90
12761;DHT22;6444;49.742;6.114;2022-11-20T13:10:03;9.60;99.90
12761;DHT22;6444;49.742;6.114;2022-11-20T13:12:46;9.90;99.90
12761;DHT22;6444;49.742;6.114;2022-11-20T13:15:18;9.80;99.90
12761;DHT22;6444;49.742;6.114;2022-11-20T13:17:47;9.80;99.90
12761;DHT22;6444;49.742;6.114;2022-11-20T13:20:14;9.50;99.90
12761;DHT22;6444;49.742;6.114;2022-11-20T13:22:44;9.40;99.90
12761;DHT22;6444;49.742;6.114;2022-11-20T13:25:10;9.40;99.90
12761;DHT22;6444;49.742;6.114;2022-11-20T13:27:36;9.60;99.90
12761;DHT22;6444;49.742;6.114;2022-11-20T13:30:12;9.60;99.90
12761;DHT22;6444;49.742;6.114;2022-11-20T13:32:29;9.30;99.90
12761;DHT22;6444;49.742;6.114;2022-11-20T13:34:57;9.40;99.90
12761;DHT22;6444;49.742;6.114;2022-11-20T13:37:29;9.90;99.90
12761;DHT22;6444;49.742;6.114;2022-11-20T13:40:05;9.80;99.90
12761;DHT22;6444;49.742;6.114;2022-11-20T13:42:23;9.70;99.90
12761;DHT22;6444;49.742;6.114;2022-11-20T13:44:50;9.50;99.90
12761;DHT22;6444;49.742;6.114;2022-11-20T13:47:25;9.20;99.90
12761;DHT22;6444;49.742;6.114;2022-11-20T13:49:50;9.60;99.90
12761;DHT22;6444;49.742;6.114;2022-11-20T13:55:18;9.30;99.90
12761;DHT22;6444;49.742;6.114;2022-11-20T13:57:54;9.20;99.90
12761;DHT22;6444;49.742;6.114;2022-11-20T14:00:21;9.40;99.90
12761;DHT22;6444;49.742;6.114;2022-11-20T14:03:08;9.30;99.90
12761;DHT22;6444;49.742;6.114;2022-11-20T14:05:28;9.20;99.90
12761;DHT22;6444;49.742;6.114;2022-11-20T14:07:55;9.00;99.90
12761;DHT22;6444;49.742;6.114;2022-11-20T14:12:48;9.20;99.90
12761;DHT22;6444;49.742;6.114;2022-11-20T14:15:31;9.00;99.90
12761;DHT22;6444;49.742;6.114;2022-11-20T14:17:57;9.20;99.90
12761;DHT22;6444;49.742;6.114;2022-11-20T14:20:27;8.80;99.90
12761;DHT22;6444;49.742;6.114;2022-11-20T14:22:50;8.90;99.90
12761;DHT22;6444;49.742;6.114;2022-11-20T14:27:44;9.00;99.90
12761;DHT22;6444;49.742;6.114;2022-11-20T14:30:16;8.90;99.90
12761;DHT22;6444;49.742;6.114;2022-11-20T14:32:42;9.10;99.90
12761;DHT22;6444;49.742;6.114;2022-11-20T14:35:13;9.00;99.90
12761;DHT22;6444;49.742;6.114;2022-11-20T14:37:38;9.10;99.90
12761;DHT22;6444;49.742;6.114;2022-11-20T14:40:14;8.80;99.90
12761;DHT22;6444;49.742;6.114;2022-11-20T14:42:31;8.90;99.90
12761;DHT22;6444;49.742;6.114;2022-11-20T14:44:58;8.70;99.90
12761;DHT22;6444;49.742;6.114;2022-11-20T14:47:25;8.70;99.90
12761;DHT22;6444;49.742;6.114;2022-11-20T14:49:51;8.70;99.90
12761;DHT22;6444;49.742;6.114;2022-11-20T14:52:21;8.60;99.90
12761;DHT22;6444;49.742;6.114;2022-11-20T14:54:45;8.50;99.90
12761;DHT22;6444;49.742;6.114;2022-11-20T14:57:21;8.20;99.90
12761;DHT22;6444;49.742;6.114;2022-11-20T14:59:38;8.00;99.90
12761;DHT22;6444;49.742;6.114;2022-11-20T15:02:09;8.00;99.90
12761;DHT22;6444;49.742;6.114;2022-11-20T15:04:31;7.90;99.90
12761;DHT22;6444;49.742;6.114;2022-11-20T15:06:58;8.10;99.90
12761;DHT22;6444;49.742;6.114;2022-11-20T15:09:24;8.30;99.90
12761;DHT22;6444;49.742;6.114;2022-11-20T15:12:00;7.90;99.90
12761;DHT22;6444;49.742;6.114;2022-11-20T15:14:27;7.80;99.90
12761;DHT22;6444;49.742;6.114;2022-11-20T15:16:53;7.70;99.90
12761;DHT22;6444;49.742;6.114;2022-11-20T15:19:23;7.80;99.90
12761;DHT22;6444;49.742;6.114;2022-11-20T15:21:49;7.70;99.90
12761;DHT22;6444;49.742;6.114;2022-11-20T15:24:18;7.60;99.90
12761;DHT22;6444;49.742;6.114;2022-11-20T15:26:45;7.40;99.90
12761;DHT22;6444;49.742;6.114;2022-11-20T15:29:12;7.30;99.90
12761;DHT22;6444;49.742;6.114;2022-11-20T15:31:38;7.20;99.90
12761;DHT22;6444;49.742;6.114;2022-11-20T15:34:09;7.10;99.90
12761;DHT22;6444;49.742;6.114;2022-11-20T15:36:34;6.80;99.90
12761;DHT22;6444;49.742;6.114;2022-11-20T15:39:01;7.00;99.90
12761;DHT22;6444;49.742;6.114;2022-11-20T15:41:27;6.90;99.90
12761;DHT22;6444;49.742;6.114;2022-11-20T15:43:54;6.80;99.90
12761;DHT22;6444;49.742;6.114;2022-11-20T15:46:25;6.70;99.90
12761;DHT22;6444;49.742;6.114;2022-11-20T15:48:56;6.70;99.90
12761;DHT22;6444;49.742;6.114;2022-11-20T15:51:32;6.80;99.90
12761;DHT22;6444;49.742;6.114;2022-11-20T15:53:58;6.90;99.90
12761;DHT22;6444;49.742;6.114;2022-11-20T15:56:24;7.00;99.90
12761;DHT22;6444;49.742;6.114;2022-11-20T15:58:51;6.80;99.90
12761;DHT22;6444;49.742;6.114;2022-11-20T16:01:18;6.90;99.90
12761;DHT22;6444;49.742;6.114;2022-11-20T16:03:44;6.80;99.90
12761;DHT22;6444;49.742;6.114;2022-11-20T16:06:11;6.80;99.90
12761;DHT22;6444;49.742;6.114;2022-11-20T16:08:37;7.00;99.90
12761;DHT22;6444;49.742;6.114;2022-11-20T16:11:04;7.10;99.90
12761;DHT22;6444;49.742;6.114;2022-11-20T16:13:32;7.00;99.90
12761;DHT22;6444;49.742;6.114;2022-11-20T16:16:23;7.00;99.90
12761;DHT22;6444;49.742;6.114;2022-11-20T16:18:49;7.10;99.90
12761;DHT22;6444;49.742;6.114;2022-11-20T16:21:15;7.10;99.90
12761;DHT22;6444;49.742;6.114;2022-11-20T16:23:42;7.00;99.90
12761;DHT22;6444;49.742;6.114;2022-11-20T16:26:09;7.40;99.90
12761;DHT22;6444;49.742;6.114;2022-11-20T16:28:35;7.80;99.90
12761;DHT22;6444;49.742;6.114;2022-11-20T16:31:15;8.00;99.90
12761;DHT22;6444;49.742;6.114;2022-11-20T16:33:38;7.70;99.90
12761;DHT22;6444;49.742;6.114;2022-11-20T16:36:11;7.70;99.90
12761;DHT22;6444;49.742;6.114;2022-11-20T16:38:34;7.70;99.90
12761;DHT22;6444;49.742;6.114;2022-11-20T16:41:00;7.80;99.90
12761;DHT22;6444;49.742;6.114;2022-11-20T16:43:27;7.60;99.90
12761;DHT22;6444;49.742;6.114;2022-11-20T16:45:54;7.60;99.90
12761;DHT22;6444;49.742;6.114;2022-11-20T16:48:20;7.40;99.90
12761;DHT22;6444;49.742;6.114;2022-11-20T16:50:51;7.80;99.90
12761;DHT22;6444;49.742;6.114;2022-11-20T16:53:20;8.20;99.90
12761;DHT22;6444;49.742;6.114;2022-11-20T16:55:46;7.70;99.90
12761;DHT22;6444;49.742;6.114;2022-11-20T16:58:13;7.50;99.90
12761;DHT22;6444;49.742;6.114;2022-11-20T17:00:39;7.60;99.90
12761;DHT22;6444;49.742;6.114;2022-11-20T17:03:06;7.40;99.90
12761;DHT22;6444;49.742;6.114;2022-11-20T17:05:33;7.60;99.90
12761;DHT22;6444;49.742;6.114;2022-11-20T17:07:59;7.60;99.90
12761;DHT22;6444;49.742;6.114;2022-11-20T17:10:26;7.30;99.90
12761;DHT22;6444;49.742;6.114;2022-11-20T17:12:52;7.50;99.90
12761;DHT22;6444;49.742;6.114;2022-11-20T17:15:19;7.40;99.90
12761;DHT22;6444;49.742;6.114;2022-11-20T17:17:46;7.60;99.90
12761;DHT22;6444;49.742;6.114;2022-11-20T17:20:12;7.70;99.90
12761;DHT22;6444;49.742;6.114;2022-11-20T17:22:39;7.60;99.90
12761;DHT22;6444;49.742;6.114;2022-11-20T17:25:05;7.90;99.90
12761;DHT22;6444;49.742;6.114;2022-11-20T17:27:32;7.80;99.90
12761;DHT22;6444;49.742;6.114;2022-11-20T17:29:59;7.70;99.90
12761;DHT22;6444;49.742;6.114;2022-11-20T17:32:25;8.00;99.90
12761;DHT22;6444;49.742;6.114;2022-11-20T17:34:52;8.30;99.90